Time;durP1;ratioP1;P1;durP2;ratioP2;P2;SDS_P1;SDS_P2;PMS_P1;PMS_P2;Temp;Humidity;BMP_temperature;BMP_pressure;BME280_temperature;BME280_humidity;BME280_pressure;Samples;Min_cycle;Max_cycle;Signal;HPM_P1;HPM_P2
2021/12/25 00:00:06;;;;;;;0.20;0.20;;;;;;;19.01;39.91;100054.25;5122384;28;20049;-31
2021/12/25 00:02:34;;;;;;;0.20;0.20;;;;;;;19.03;40.31;100049.25;5108483;28;20048;-31
2021/12/25 00:04:59;;;;;;;0.20;0.20;;;;;;;19.02;40.10;100044.84;5123299;28;20628;-31
2021/12/25 00:07:25;;;;;;;0.20;0.20;;;;;;;19.03;40.27;100040.16;5125237;28;20048;-31
2021/12/25 00:09:51;;;;;;;0.20;0.20;;;;;;;19.02;40.15;100047.59;5125464;28;20047;-31
2021/12/25 00:12:16;;;;;;;0.20;0.20;;;;;;;19.02;40.23;100041.28;5127417;28;20043;-31
2021/12/25 00:14:42;;;;;;;0.20;0.20;;;;;;;19.02;40.19;100044.03;5105315;28;20405;-32
2021/12/25 00:17:08;;;;;;;0.20;0.20;;;;;;;19.02;40.05;100042.09;5123913;28;20047;-31
2021/12/25 00:19:33;;;;;;;0.20;0.20;;;;;;;19.02;40.20;100046.78;5119880;28;20047;-31
2021/12/25 00:22:00;;;;;;;0.20;0.20;;;;;;;19.02;40.03;100046.78;5121834;28;20036;-31
2021/12/25 00:24:26;;;;;;;0.20;0.20;;;;;;;19.02;40.05;100042.09;5120826;28;20401;-34
2021/12/25 00:27:02;;;;;;;0.20;0.20;;;;;;;19.02;40.07;100039.31;5106356;28;20057;-31
2021/12/25 00:30:14;;;;;;;0.20;0.20;;;;;;;19.02;40.27;100042.09;5102805;28;20035;-31
2021/12/25 00:32:41;;;;;;;0.20;0.20;;;;;;;19.01;40.06;100040.47;5109656;28;20544;-31
2021/12/25 00:34:59;;;;;;;0.20;0.20;;;;;;;19.03;40.07;100056.69;5103586;28;20041;-31
2021/12/25 00:37:26;;;;;;;0.20;0.20;;;;;;;19.02;40.31;100057.81;5124927;28;20396;-31
2021/12/25 00:39:52;;;;;;;0.20;0.20;;;;;;;19.01;40.12;100064.47;5120830;28;20126;-31
2021/12/25 00:42:18;;;;;;;0.20;0.20;;;;;;;19.00;40.11;100055.38;5123653;27;20047;-31
2021/12/25 00:44:43;;;;;;;0.20;0.20;;;;;;;19.01;40.32;100061.72;5101267;28;20205;-31
2021/12/25 00:47:09;;;;;;;0.20;0.20;;;;;;;19.02;40.09;100066.09;5125726;28;20108;-31
2021/12/25 00:49:35;;;;;;;0.20;0.20;;;;;;;19.02;40.31;100057.81;5123498;28;20051;-32
2021/12/25 00:52:00;;;;;;;0.20;0.20;;;;;;;19.01;40.34;100057.00;5119051;28;20394;-34
2021/12/25 00:54:26;;;;;;;0.20;0.20;;;;;;;19.01;40.08;100057.00;5120173;28;20039;-34
2021/12/25 00:56:52;;;;;;;0.20;0.20;;;;;;;19.00;40.09;100058.13;5119750;28;20531;-32
2021/12/25 00:59:17;;;;;;;0.20;0.20;;;;;;;19.01;40.33;100062.53;5107359;28;20043;-32
2021/12/25 01:01:44;;;;;;;0.20;0.20;;;;;;;19.02;40.16;100057.81;5105821;28;20043;-32
2021/12/25 01:04:10;;;;;;;0.20;0.20;;;;;;;19.01;40.32;100067.22;5125290;28;20047;-32
2021/12/25 01:06:36;;;;;;;0.20;0.20;;;;;;;19.00;40.13;100058.13;5121937;28;20047;-32
2021/12/25 01:09:03;;;;;;;0.20;0.20;;;;;;;19.00;40.15;100055.38;5124419;28;20297;-33
2021/12/25 01:11:30;;;;;;;0.20;0.20;;;;;;;19.00;40.30;100044.34;5126951;28;20114;-32
2021/12/25 01:14:04;;;;;;;0.20;0.20;;;;;;;19.01;40.28;100032.19;5118041;28;20050;-32
2021/12/25 01:19:37;;;;;;;0.20;0.20;;;;;;;18.99;40.27;100025.31;5157884;27;20116;-33
2021/12/25 01:22:38;;;;;;;0.20;0.20;;;;;;;18.99;40.22;100034.41;5141298;27;20181;-33
2021/12/25 01:30:18;;;;;;;0.20;0.20;;;;;;;19.01;40.28;100050.69;5138822;27;20101;-33
2021/12/25 01:33:18;;;;;;;0.20;0.20;;;;;;;19.00;40.16;100049.03;5162586;27;20038;-34
2021/12/25 01:35:58;;;;;;;0.20;0.20;;;;;;;18.99;40.14;100050.97;5145242;27;20043;-33
2021/12/25 01:41:15;;;;;;;0.20;0.20;;;;;;;18.99;40.09;100053.72;5143931;27;20060;-32
2021/12/25 01:49:15;;;;;;;0.20;0.20;;;;;;;19.00;40.33;100054.56;5143195;27;20061;-32
2021/12/25 01:51:41;;;;;;;0.20;0.20;;;;;;;18.99;40.16;100053.72;5142275;27;20046;-31
2021/12/25 01:54:07;;;;;;;0.20;0.20;;;;;;;19.01;40.28;100053.44;5151350;27;20077;-32
2021/12/25 01:56:33;;;;;;;0.20;0.20;;;;;;;19.00;40.24;100051.81;5123126;27;20050;-32
2021/12/25 01:58:59;;;;;;;0.20;0.20;;;;;;;19.00;40.17;100054.56;5159132;27;20054;-32
2021/12/25 02:01:24;;;;;;;0.20;0.20;;;;;;;18.99;40.14;100048.19;5159068;27;20039;-34
2021/12/25 02:03:50;;;;;;;0.20;0.20;;;;;;;19.00;40.37;100069.19;5159001;27;20034;-32
2021/12/25 02:06:16;;;;;;;0.20;0.20;;;;;;;19.00;40.09;100054.56;5152983;27;20042;-32
2021/12/25 02:08:43;;;;;;;0.20;0.20;;;;;;;19.00;40.35;100062.84;5162678;27;20183;-32
2021/12/25 02:11:10;;;;;;;0.20;0.20;;;;;;;18.99;40.33;100061.19;5124062;27;20050;-33
2021/12/25 02:13:37;;;;;;;0.20;0.20;;;;;;;19.00;40.33;100060.91;5141390;27;20046;-33
2021/12/25 02:16:11;;;;;;;0.20;0.20;;;;;;;18.99;40.30;100061.19;5154487;27;20047;-34
2021/12/25 02:19:13;;;;;;;0.20;0.20;;;;;;;18.99;40.29;100059.25;5148037;27;20050;-32
2021/12/25 02:21:27;;;;;;;0.20;0.20;;;;;;;18.99;40.34;100062.00;5124759;27;20046;-32
2021/12/25 02:23:53;;;;;;;0.20;0.20;;;;;;;18.98;40.43;100057.59;5136487;27;20049;-32
2021/12/25 02:26:20;;;;;;;0.20;0.20;;;;;;;18.99;40.09;100059.25;5136840;27;20039;-32
2021/12/25 02:28:46;;;;;;;0.20;0.20;;;;;;;18.99;40.31;100050.97;5118186;28;20047;-32
2021/12/25 02:31:13;;;;;;;0.20;0.20;;;;;;;19.00;40.07;100051.81;5124684;28;20051;-32
2021/12/25 02:33:40;;;;;;;0.20;0.20;;;;;;;18.99;40.42;100042.69;5088837;28;20124;-33
2021/12/25 02:36:10;;;;;;;0.20;0.20;;;;;;;18.98;40.40;100037.47;5108938;28;20047;-33
2021/12/25 02:38:36;;;;;;;0.20;0.20;;;;;;;18.98;40.28;100043.81;5107460;28;20043;-32
2021/12/25 02:41:03;;;;;;;0.20;0.20;;;;;;;18.99;40.30;100044.63;5124963;28;20086;-32
2021/12/25 02:43:29;;;;;;;0.20;0.20;;;;;;;18.99;40.58;100030.81;5087556;28;20298;-32
2021/12/25 02:45:56;;;;;;;0.20;0.20;;;;;;;18.99;40.30;100039.09;5107046;28;20039;-32
2021/12/25 02:48:23;;;;;;;0.20;0.20;;;;;;;19.00;40.35;100040.78;5107305;28;20050;-32
2021/12/25 02:50:49;;;;;;;0.20;0.20;;;;;;;18.99;40.22;100039.91;5102676;28;20040;-32
2021/12/25 02:53:15;;;;;;;0.20;0.20;;;;;;;18.99;40.41;100042.69;5119679;28;20052;-32
2021/12/25 02:55:43;;;;;;;0.20;0.20;;;;;;;18.99;40.34;100042.69;5129743;28;20393;-32
2021/12/25 02:58:09;;;;;;;0.20;0.20;;;;;;;18.98;40.27;100041.03;5089378;28;20046;-32
2021/12/25 03:00:39;;;;;;;0.20;0.20;;;;;;;18.99;40.31;100042.69;5122486;28;20096;-32
2021/12/25 03:03:07;;;;;;;0.20;0.20;;;;;;;18.99;40.25;100041.88;5107873;28;20055;-32
2021/12/25 03:05:34;;;;;;;0.20;0.20;;;;;;;18.97;40.19;100033.91;5101472;28;20051;-32
2021/12/25 03:08:05;;;;;;;0.20;0.20;;;;;;;18.98;40.41;100037.47;5108889;28;20051;-32
2021/12/25 03:10:33;;;;;;;0.20;0.20;;;;;;;18.98;40.43;100037.47;5105012;28;20045;-32
2021/12/25 03:13:29;;;;;;;0.20;0.20;;;;;;;18.99;40.26;100036.34;5091403;28;20382;-32
2021/12/25 03:15:47;;;;;;;0.20;0.20;;;;;;;18.99;40.18;100041.88;5106161;28;20052;-32
2021/12/25 03:18:14;;;;;;;0.20;0.20;;;;;;;18.98;40.39;100045.75;5107229;28;20047;-32
2021/12/25 03:20:44;;;;;;;0.20;0.20;;;;;;;18.99;40.32;100036.34;5106251;28;20047;-32
2021/12/25 03:23:12;;;;;;;0.20;0.20;;;;;;;18.98;40.54;100040.22;5089105;28;21022;-32
2021/12/25 03:25:38;;;;;;;0.20;0.20;;;;;;;18.98;40.40;100048.50;5093460;28;20492;-32
2021/12/25 03:28:04;;;;;;;0.20;0.20;;;;;;;18.98;40.34;100049.31;5125463;28;20047;-32
2021/12/25 03:30:36;;;;;;;0.20;0.20;;;;;;;18.98;40.19;100049.31;5123170;28;20035;-32
2021/12/25 03:33:02;;;;;;;0.20;0.20;;;;;;;18.98;40.29;100048.50;5124485;28;20046;-32
2021/12/25 03:35:28;;;;;;;0.20;0.20;;;;;;;18.98;40.33;100048.50;5105483;28;20035;-31
2021/12/25 03:37:54;;;;;;;0.20;0.20;;;;;;;18.98;40.36;100051.28;5107801;28;20046;-34
2021/12/25 03:40:20;;;;;;;0.20;0.20;;;;;;;18.98;40.24;100056.78;5120384;27;20039;-31
2021/12/25 03:42:46;;;;;;;0.20;0.20;;;;;;;18.98;40.38;100052.09;5123037;27;20039;-31
2021/12/25 03:45:11;;;;;;;0.20;0.20;;;;;;;18.98;40.17;100048.50;5119492;28;20043;-31
2021/12/25 03:47:39;;;;;;;0.20;0.20;;;;;;;18.98;40.21;100049.31;5120119;28;20092;-34
2021/12/25 03:53:09;;;;;;;0.20;0.20;;;;;;;18.98;40.26;100049.31;5124558;28;20062;-31
2021/12/25 03:53:36;;;;;;;0.20;0.20;;;;;;;18.98;40.13;100059.56;5105382;28;20470;-31
2021/12/25 03:58:28;;;;;;;0.20;0.20;;;;;;;18.99;40.48;100058.41;5092215;28;20057;-31
2021/12/25 04:01:00;;;;;;;0.20;0.20;;;;;;;18.98;40.23;100062.31;5118948;28;20043;-31
2021/12/25 04:03:44;;;;;;;0.20;0.20;;;;;;;18.96;40.45;100059.03;5107060;28;20064;-31
2021/12/25 04:06:10;;;;;;;0.20;0.20;;;;;;;18.98;40.31;100063.13;5108035;28;20047;-31
2021/12/25 04:08:43;;;;;;;0.20;0.20;;;;;;;18.97;40.37;100053.22;5120529;28;20051;-32
2021/12/25 04:11:24;;;;;;;0.20;0.20;;;;;;;18.97;40.23;100058.72;5104113;28;20149;-32
2021/12/25 04:13:50;;;;;;;0.20;0.20;;;;;;;18.98;40.23;100059.56;5124327;28;20035;-31
2021/12/25 04:16:15;;;;;;;0.20;0.20;;;;;;;18.96;40.45;100057.09;5125672;28;20062;-31
2021/12/25 04:18:41;;;;;;;0.20;0.20;;;;;;;18.97;40.29;100060.69;5106088;28;20047;-31
2021/12/25 04:21:07;;;;;;;0.20;0.20;;;;;;;18.97;40.43;100060.69;5121269;28;20100;-31
2021/12/25 04:23:36;;;;;;;0.20;0.20;;;;;;;18.96;40.23;100065.38;5119297;28;20072;-31
2021/12/25 04:26:01;;;;;;;0.20;0.20;;;;;;;18.98;40.26;100068.63;5122222;28;20057;-31
2021/12/25 04:28:37;;;;;;;0.20;0.20;;;;;;;18.98;40.35;100073.34;5123921;28;20055;-31
2021/12/25 04:31:24;;;;;;;0.20;0.20;;;;;;;18.99;40.28;100072.22;5126090;28;20051;-31
2021/12/25 05:01:42;;;;;;;0.20;0.20;;;;;;;18.95;40.38;100088.53;5107829;28;20051;-31
2021/12/25 05:04:18;;;;;;;0.20;0.20;;;;;;;18.96;40.28;100090.22;5109044;28;20043;-32
2021/12/25 05:06:44;;;;;;;0.20;0.20;;;;;;;18.96;40.20;100097.66;5118765;28;20393;-31
2021/12/25 05:09:09;;;;;;;0.20;0.20;;;;;;;18.95;40.35;100101.53;5123778;28;20175;-31
2021/12/25 05:11:35;;;;;;;0.20;0.20;;;;;;;18.95;40.35;100096.00;5118264;28;20467;-31
2021/12/25 05:14:01;;;;;;;0.20;0.20;;;;;;;18.96;40.26;100100.44;5124271;28;20282;-32
2021/12/25 05:16:27;;;;;;;0.20;0.20;;;;;;;18.95;40.17;100096.81;5121365;28;20047;-32
2021/12/25 05:18:53;;;;;;;0.20;0.20;;;;;;;18.94;40.35;100100.72;5125773;28;20047;-31
2021/12/25 05:21:19;;;;;;;0.20;0.20;;;;;;;18.94;40.09;100102.66;5121999;28;20035;-31
2021/12/25 05:23:45;;;;;;;0.20;0.20;;;;;;;18.96;40.24;100100.44;5121379;28;20099;-32
2021/12/25 05:26:11;;;;;;;0.20;0.20;;;;;;;18.94;40.16;100100.72;5105217;28;20522;-31
2021/12/25 05:28:40;;;;;;;0.20;0.20;;;;;;;18.95;40.19;100101.53;5123644;28;20043;-31
2021/12/25 05:31:08;;;;;;;0.20;0.20;;;;;;;18.94;40.38;100103.47;5118672;28;20046;-31
2021/12/25 05:33:34;;;;;;;0.20;0.20;;;;;;;18.94;40.37;100109.00;5122192;28;20051;-31
2021/12/25 05:36:00;;;;;;;0.20;0.20;;;;;;;18.94;40.14;100106.22;5122778;28;20088;-33
2021/12/25 05:38:26;;;;;;;0.20;0.20;;;;;;;18.92;40.43;100108.47;5106176;28;20039;-31
2021/12/25 05:40:52;;;;;;;0.20;0.20;;;;;;;18.94;40.25;100100.72;5116385;28;20159;-31
2021/12/25 05:43:17;;;;;;;0.20;0.20;;;;;;;18.94;40.17;100109.00;5098676;28;20070;-31
2021/12/25 05:45:44;;;;;;;0.20;0.20;;;;;;;18.94;40.18;100111.75;5116581;28;20130;-31
2021/12/25 05:48:10;;;;;;;0.20;0.20;;;;;;;18.93;40.14;100112.88;5121264;28;20043;-31
2021/12/25 05:50:37;;;;;;;0.20;0.20;;;;;;;18.94;40.10;100106.22;5122474;28;20053;-35
2021/12/25 05:53:04;;;;;;;0.20;0.20;;;;;;;18.93;40.44;100106.53;5081196;28;20043;-34
2021/12/25 05:55:29;;;;;;;0.20;0.20;;;;;;;18.94;40.17;100113.69;5098234;28;20066;-31
2021/12/25 05:57:55;;;;;;;0.20;0.20;;;;;;;18.92;40.21;100114.00;5117638;28;20043;-31
2021/12/25 06:00:21;;;;;;;0.20;0.20;;;;;;;18.93;40.35;100117.56;5100233;28;20040;-32
2021/12/25 06:02:47;;;;;;;0.20;0.20;;;;;;;18.94;40.13;100121.97;5120823;28;20478;-34
2021/12/25 06:05:14;;;;;;;0.20;0.20;;;;;;;18.93;40.34;100121.16;5125936;27;20051;-31
2021/12/25 06:07:39;;;;;;;0.20;0.20;;;;;;;18.93;40.27;100118.38;5107308;28;20297;-31
2021/12/25 06:10:09;;;;;;;0.20;0.20;;;;;;;18.94;40.12;100133.00;5103977;28;20439;-31
2021/12/25 06:12:37;;;;;;;0.20;0.20;;;;;;;18.91;40.14;100134.44;5108710;28;20506;-33
2021/12/25 06:15:05;;;;;;;0.20;0.20;;;;;;;18.91;40.22;100137.19;5089369;28;20039;-32
2021/12/25 06:17:31;;;;;;;;;;;;;;;18.92;40.10;100147.09;5107290;27;20047;-31
2021/12/25 06:19:56;;;;;;;0.13;0.13;;;;;;;18.91;40.41;100144.63;5126553;28;20366;-31
2021/12/25 06:22:22;;;;;;;0.20;0.20;;;;;;;18.93;40.33;100145.16;5124406;28;20070;-31
2021/12/25 06:24:49;;;;;;;0.20;0.20;;;;;;;18.91;40.10;100141.88;5105521;28;20035;-31
2021/12/25 06:27:16;;;;;;;0.20;0.20;;;;;;;18.91;40.30;100151.00;5118165;28;20411;-34
2021/12/25 06:29:42;;;;;;;0.20;0.20;;;;;;;18.91;40.09;100162.03;5125489;28;20044;-32
2021/12/25 06:32:08;;;;;;;0.20;0.20;;;;;;;18.91;40.25;100166.69;5125780;28;20313;-31
2021/12/25 06:34:33;;;;;;;0.20;0.20;;;;;;;18.90;40.19;100157.59;5121211;28;20155;-34
2021/12/25 06:36:59;;;;;;;0.20;0.20;;;;;;;18.90;40.13;100167.81;5125454;28;20058;-34
2021/12/25 06:39:25;;;;;;;0.20;0.20;;;;;;;18.90;40.11;100170.59;5127926;28;20039;-34
2021/12/25 06:41:50;;;;;;;0.20;0.20;;;;;;;18.90;40.32;100170.59;5121299;27;20141;-31
2021/12/25 06:44:17;;;;;;;0.20;0.20;;;;;;;18.90;40.20;100176.91;5126352;28;20039;-31
2021/12/25 06:46:43;;;;;;;0.20;0.20;;;;;;;18.90;40.15;100174.16;5122819;28;20048;-31
2021/12/25 06:49:09;;;;;;;0.20;0.20;;;;;;;18.90;40.36;100176.09;5107353;28;20404;-31
2021/12/25 06:51:35;;;;;;;0.20;0.20;;;;;;;18.90;40.32;100179.69;5121319;28;20047;-33
2021/12/25 06:54:02;;;;;;;0.20;0.20;;;;;;;18.90;40.33;100182.44;5118898;28;20528;-31
2021/12/25 06:56:28;;;;;;;0.20;0.20;;;;;;;18.90;40.33;100187.13;5126144;28;20229;-33
2021/12/25 06:58:54;;;;;;;0.20;0.20;;;;;;;18.90;40.25;100182.44;5124234;28;20126;-32
2021/12/25 07:01:19;;;;;;;0.20;0.20;;;;;;;18.88;40.26;100187.44;5107867;28;20458;-34
2021/12/25 07:03:45;;;;;;;0.20;0.20;;;;;;;18.90;40.26;100189.91;5127270;28;20045;-33
2021/12/25 07:06:11;;;;;;;0.20;0.20;;;;;;;18.89;40.24;100193.78;5126296;28;20454;-31
2021/12/25 07:08:37;;;;;;;0.20;0.20;;;;;;;18.89;40.39;100186.31;5126145;28;20077;-31
2021/12/25 07:11:03;;;;;;;0.20;0.20;;;;;;;18.90;40.27;100196.22;5103687;28;20051;-31
2021/12/25 07:13:28;;;;;;;0.20;0.20;;;;;;;18.89;40.28;100197.34;5088859;28;20301;-31
2021/12/25 07:15:54;;;;;;;0.20;0.20;;;;;;;18.89;40.08;100207.56;5123379;27;20505;-32
2021/12/25 07:18:20;;;;;;;0.20;0.20;;;;;;;18.89;40.63;100204.81;5124664;28;20043;-32
2021/12/25 07:20:48;;;;;;;0.20;0.20;;;;;;;18.88;40.04;100208.69;5122547;28;20046;-33
2021/12/25 07:23:14;;;;;;;;;;;;;;;18.88;40.14;100206.75;5124614;28;20545;-31
2021/12/25 07:25:40;;;;;;;0.20;0.20;;;;;;;18.87;40.02;100205.13;5122686;28;19919;-32
2021/12/25 07:28:05;;;;;;;0.20;0.20;;;;;;;18.87;40.19;100212.56;5124016;28;20051;-31
2021/12/25 07:30:32;;;;;;;0.20;0.20;;;;;;;18.86;40.21;100210.91;5121866;28;20054;-31
2021/12/25 07:32:58;;;;;;;0.20;0.20;;;;;;;18.86;40.32;100217.25;5125182;28;20047;-31
2021/12/25 07:35:23;;;;;;;0.20;0.20;;;;;;;18.87;40.23;100223.59;5125359;28;20122;-35
2021/12/25 07:37:49;;;;;;;0.20;0.20;;;;;;;18.87;40.21;100223.59;5092851;28;20100;-32
2021/12/25 07:40:15;;;;;;;0.20;0.20;;;;;;;18.86;40.10;100222.75;5119895;28;20039;-31
2021/12/25 07:42:41;;;;;;;0.20;0.20;;;;;;;18.87;40.17;100216.16;5121996;27;20062;-33
2021/12/25 07:45:08;;;;;;;0.20;0.20;;;;;;;18.87;40.13;100220.81;5119350;28;20097;-35
2021/12/25 07:47:35;;;;;;;0.20;0.20;;;;;;;18.87;40.16;100229.09;5103223;28;20607;-31
2021/12/25 07:50:03;;;;;;;0.20;0.20;;;;;;;18.88;40.14;100239.03;5106037;28;20046;-33
2021/12/25 07:52:29;;;;;;;0.20;0.20;;;;;;;18.87;40.02;100234.63;5105872;28;20035;-33
2021/12/25 07:54:55;;;;;;;0.20;0.20;;;;;;;18.85;39.98;100237.69;5120156;28;20085;-31
2021/12/25 07:57:21;;;;;;;0.20;0.20;;;;;;;18.87;40.00;100245.66;5102218;28;20477;-31
2021/12/25 07:59:46;;;;;;;0.20;0.20;;;;;;;18.85;40.16;100234.09;5125835;28;20046;-34
2021/12/25 08:02:12;;;;;;;0.20;0.20;;;;;;;18.86;40.10;100239.31;5125443;28;20047;-32
2021/12/25 08:04:38;;;;;;;0.20;0.20;;;;;;;18.86;40.17;100249.53;5105033;28;20035;-31
2021/12/25 08:07:04;;;;;;;0.20;0.20;;;;;;;18.86;40.12;100247.59;5121571;28;20456;-31
2021/12/25 08:09:31;;;;;;;0.20;0.20;;;;;;;18.85;40.25;100251.47;5118206;28;20047;-34
2021/12/25 08:11:59;;;;;;;0.20;0.20;;;;;;;18.85;40.23;100253.41;5125149;28;20043;-32
2021/12/25 08:14:28;;;;;;;0.20;0.20;;;;;;;18.85;40.11;100256.19;5122332;28;20432;-31
2021/12/25 08:16:54;;;;;;;0.20;0.20;;;;;;;18.84;40.34;100252.59;5121478;28;20475;-31
2021/12/25 08:19:20;;;;;;;0.20;0.20;;;;;;;18.85;40.01;100254.25;5104422;28;20058;-31
2021/12/25 08:21:46;;;;;;;0.20;0.20;;;;;;;18.84;40.08;100260.06;5105488;28;20043;-31
2021/12/25 08:24:12;;;;;;;0.20;0.20;;;;;;;18.85;40.14;100258.94;5123596;28;20047;-31
2021/12/25 08:26:38;;;;;;;0.20;0.20;;;;;;;18.84;40.23;100263.63;5123209;27;20154;-32
2021/12/25 08:29:04;;;;;;;0.20;0.20;;;;;;;18.85;40.34;100267.22;5125114;28;20435;-31
2021/12/25 08:31:30;;;;;;;0.20;0.20;;;;;;;18.84;40.12;100271.09;5123363;28;20047;-31
2021/12/25 08:33:56;;;;;;;0.20;0.20;;;;;;;18.84;40.26;100279.38;5121672;28;20054;-32
2021/12/25 08:36:21;;;;;;;0.20;0.20;;;;;;;18.85;40.26;100283.78;5123937;28;20129;-32
2021/12/25 08:38:47;;;;;;;0.20;0.20;;;;;;;18.84;40.00;100285.72;5120662;28;20472;-31
2021/12/25 08:41:14;;;;;;;0.20;0.20;;;;;;;18.84;40.01;100282.94;5122940;28;20176;-31
2021/12/25 08:43:47;;;;;;;0.20;0.20;;;;;;;18.83;40.33;100286.84;5120872;28;20042;-31
2021/12/25 08:46:18;;;;;;;0.20;0.20;;;;;;;18.82;40.33;100287.94;5123402;28;20042;-33
2021/12/25 08:48:45;;;;;;;0.20;0.20;;;;;;;18.83;40.15;100291.53;5103313;28;20532;-33
2021/12/25 08:51:11;;;;;;;0.20;0.20;;;;;;;18.83;40.15;100292.34;5106681;28;20050;-34
2021/12/25 08:53:36;;;;;;;0.30;0.30;;;;;;;18.83;40.25;100297.88;5101568;28;20043;-33
2021/12/25 08:56:02;;;;;;;0.20;0.20;;;;;;;18.83;40.13;100292.34;5122790;28;20071;-33
2021/12/25 08:58:31;;;;;;;0.20;0.20;;;;;;;18.84;40.28;100298.69;5120931;28;20112;-32
2021/12/25 09:01:00;;;;;;;;;;;;;;;18.83;40.26;100297.03;5105484;28;20047;-33
2021/12/25 09:03:27;;;;;;;0.20;0.20;;;;;;;18.82;40.17;100298.13;5121020;28;19927;-32
2021/12/25 09:05:56;;;;;;;0.20;0.20;;;;;;;18.82;40.00;100307.22;5098527;28;20466;-31
2021/12/25 09:08:22;;;;;;;0.20;0.20;;;;;;;18.81;40.00;100311.13;5107511;28;20506;-31
2021/12/25 09:10:48;;;;;;;0.20;0.20;;;;;;;18.82;40.15;100311.94;5119245;28;20053;-34
2021/12/25 09:13:14;;;;;;;0.20;0.20;;;;;;;18.82;40.03;100312.75;5121916;28;20043;-33
2021/12/25 09:15:39;;;;;;;0.20;0.20;;;;;;;18.82;40.09;100314.69;5121461;28;20058;-31
2021/12/25 09:18:05;;;;;;;0.20;0.20;;;;;;;18.80;40.18;100318.56;5123553;28;20035;-31
2021/12/25 09:20:31;;;;;;;0.20;0.20;;;;;;;18.80;40.12;100318.56;5120886;28;20039;-36
2021/12/25 09:22:57;;;;;;;0.20;0.20;;;;;;;18.80;40.23;100307.53;5117510;28;20043;-34
2021/12/25 09:25:24;;;;;;;0.20;0.20;;;;;;;18.80;40.12;100318.56;5124114;28;20039;-32
2021/12/25 09:27:50;;;;;;;0.20;0.20;;;;;;;18.80;40.19;100315.00;5100802;28;20057;-33
2021/12/25 09:30:16;;;;;;;0.20;0.20;;;;;;;18.79;40.13;100316.13;5122772;28;20039;-31
2021/12/25 09:32:42;;;;;;;0.20;0.20;;;;;;;18.80;40.19;100324.09;5124016;28;20624;-31
2021/12/25 09:35:09;;;;;;;0.20;0.20;;;;;;;18.80;40.21;100329.59;5089404;28;20035;-32
2021/12/25 09:37:35;;;;;;;0.20;0.20;;;;;;;18.80;40.19;100331.56;5122716;28;20551;-33
2021/12/25 09:40:01;;;;;;;0.20;0.20;;;;;;;18.79;40.12;100336.25;5121699;27;20129;-32
2021/12/25 09:42:27;;;;;;;0.20;0.20;;;;;;;18.80;40.05;100326.03;5106921;28;20130;-34
2021/12/25 09:44:53;;;;;;;0.20;0.20;;;;;;;18.80;40.03;100337.88;5118946;28;20363;-31
2021/12/25 09:47:19;;;;;;;0.20;0.20;;;;;;;18.80;40.23;100339.81;5123305;28;20051;-33
2021/12/25 09:49:45;;;;;;;0.20;0.20;;;;;;;18.79;39.92;100343.69;5124477;28;20054;-31
2021/12/25 09:52:11;;;;;;;0.20;0.20;;;;;;;18.79;39.95;100339.00;5126328;28;20044;-33
2021/12/25 09:54:37;;;;;;;0.20;0.20;;;;;;;18.79;40.29;100347.28;5102264;28;20137;-35
2021/12/25 09:57:03;;;;;;;0.20;0.20;;;;;;;18.78;40.14;100345.66;5103794;28;20042;-34
2021/12/25 09:59:28;;;;;;;0.20;0.20;;;;;;;18.79;40.13;100351.97;5119591;28;20050;-33
2021/12/25 10:01:56;;;;;;;0.20;0.20;;;;;;;18.78;40.22;100351.16;5126661;28;20096;-32
2021/12/25 10:04:38;;;;;;;0.20;0.20;;;;;;;18.79;40.05;100352.81;5126696;28;20043;-32
2021/12/25 10:07:24;;;;;;;0.20;0.20;;;;;;;18.78;40.19;100350.31;5107248;28;20042;-33
2021/12/25 10:10:13;;;;;;;0.20;0.20;;;;;;;18.78;40.19;100362.19;5105312;28;20406;-33
2021/12/25 10:12:43;;;;;;;0.25;0.25;;;;;;;18.78;40.15;100366.88;5109894;28;20047;-35
2021/12/25 10:15:13;;;;;;;0.20;0.20;;;;;;;18.78;40.04;100362.19;5125394;28;20043;-35
2021/12/25 10:17:46;;;;;;;0.20;0.20;;;;;;;18.78;40.16;100366.88;5126331;27;20043;-31
2021/12/25 10:20:15;;;;;;;0.20;0.20;;;;;;;18.78;40.30;100364.97;5123672;28;20044;-33
2021/12/25 10:23:15;;;;;;;0.20;0.20;;;;;;;18.77;40.32;100356.94;5125181;28;20134;-32
2021/12/25 10:25:47;;;;;;;0.20;0.20;;;;;;;18.78;40.06;100358.59;5093039;28;20035;-33
2021/12/25 10:28:14;;;;;;;0.30;0.30;;;;;;;18.77;40.13;100355.00;5123579;28;20043;-32
2021/12/25 10:30:46;;;;;;;0.20;0.20;;;;;;;18.77;40.21;100348.69;5104759;28;20092;-32
2021/12/25 10:33:34;;;;;;;0.20;0.20;;;;;;;18.78;40.21;100347.56;5108140;28;20039;-34
2021/12/25 10:36:04;;;;;;;0.20;0.20;;;;;;;18.77;40.17;100346.75;5124867;28;20036;-32
2021/12/25 10:38:30;;;;;;;0.20;0.20;;;;;;;18.76;40.14;100334.06;5123289;28;20140;-33
2021/12/25 10:41:20;;;;;;;0.20;0.20;;;;;;;18.78;40.21;100340.13;5125777;27;20060;-33
2021/12/25 10:43:47;;;;;;;0.20;0.20;;;;;;;18.76;39.98;100330.50;5103336;28;20039;-31
2021/12/25 10:46:14;;;;;;;0.20;0.20;;;;;;;18.77;40.17;100341.22;5108162;28;20039;-31
2021/12/25 10:48:39;;;;;;;0.25;0.25;;;;;;;18.76;40.13;100336.81;5106721;28;20486;-31
2021/12/25 10:51:06;;;;;;;0.20;0.20;;;;;;;18.77;40.16;100337.63;5099447;28;20096;-31
2021/12/25 10:53:41;;;;;;;0.20;0.20;;;;;;;18.74;40.05;100333.56;5100604;28;20047;-31
2021/12/25 10:56:12;;;;;;;0.20;0.20;;;;;;;18.77;40.25;100337.63;5108505;28;20126;-33
2021/12/25 10:58:38;;;;;;;0.20;0.20;;;;;;;18.75;40.32;100332.44;5122841;28;20054;-34
2021/12/25 11:01:07;;;;;;;0.20;0.20;;;;;;;18.75;40.12;100337.94;5105579;28;20055;-33
2021/12/25 11:03:35;;;;;;;;;;;;;;;18.76;40.06;100336.00;5122710;28;20639;-35
2021/12/25 11:06:06;;;;;;;0.20;0.20;;;;;;;18.76;40.07;100333.25;5108042;28;20360;-33
2021/12/25 11:08:32;;;;;;;0.20;0.20;;;;;;;18.75;40.32;100332.44;5127761;28;20043;-34
2021/12/25 11:11:16;;;;;;;0.20;0.20;;;;;;;18.76;40.26;100347.03;5105933;28;20043;-35
2021/12/25 11:13:48;;;;;;;0.20;0.20;;;;;;;18.76;40.16;100344.28;5105623;28;20478;-33
2021/12/25 11:16:23;;;;;;;0.20;0.20;;;;;;;18.75;40.31;100343.47;5105655;28;20482;-31
2021/12/25 11:21:27;;;;;;;0.20;0.20;;;;;;;18.75;39.91;100348.97;5164916;27;20123;-31
2021/12/25 11:24:03;;;;;;;0.20;0.20;;;;;;;18.75;40.09;100348.97;5127677;27;20049;-32
2021/12/25 11:26:29;;;;;;;0.20;0.20;;;;;;;18.74;40.17;100363.88;5144687;27;20106;-31
2021/12/25 11:28:55;;;;;;;0.20;0.20;;;;;;;18.75;40.32;100364.72;5143138;27;20046;-31
2021/12/25 11:31:20;;;;;;;0.25;0.25;;;;;;;18.75;40.28;100376.56;5147490;27;20389;-32
2021/12/25 11:33:46;;;;;;;0.30;0.30;;;;;;;18.75;40.11;100382.09;5140021;27;20247;-32
2021/12/25 11:36:12;;;;;;;0.20;0.20;;;;;;;18.75;40.22;100378.50;5146991;27;20050;-31
2021/12/25 11:38:37;;;;;;;0.20;0.20;;;;;;;18.75;40.11;100376.56;5148909;27;20043;-31
2021/12/25 11:41:06;;;;;;;0.20;0.20;;;;;;;18.75;40.24;100378.50;5152507;27;20655;-32
2021/12/25 11:43:35;;;;;;;0.20;0.20;;;;;;;18.73;40.26;100373.25;5142691;27;20038;-31
2021/12/25 11:46:05;;;;;;;0.20;0.20;;;;;;;18.75;40.18;100379.31;5149038;27;20046;-32
2021/12/25 11:48:31;;;;;;;0.20;0.20;;;;;;;18.73;40.09;100376.00;5150050;27;20042;-32
2021/12/25 11:50:57;;;;;;;0.20;0.20;;;;;;;18.75;40.21;100376.56;5147625;27;20046;-33
2021/12/25 11:53:43;;;;;;;0.20;0.20;;;;;;;18.75;40.20;100370.22;5139503;27;20035;-34
2021/12/25 11:56:25;;;;;;;0.20;0.20;;;;;;;18.74;40.22;100361.13;5126133;27;20061;-33
2021/12/25 11:58:54;;;;;;;0.20;0.20;;;;;;;18.74;40.04;100363.88;5149600;27;20182;-33
2021/12/25 12:01:44;;;;;;;0.20;0.20;;;;;;;18.74;40.23;100344.59;5124757;27;20125;-33
2021/12/25 12:04:14;;;;;;;0.20;0.20;;;;;;;18.74;40.19;100349.28;5124405;27;20500;-34
2021/12/25 12:09:33;;;;;;;0.20;0.20;;;;;;;18.73;40.04;100339.34;5164188;27;20210;-36
2021/12/25 12:12:20;;;;;;;0.20;0.20;;;;;;;18.74;40.14;100352.84;5143311;27;20053;-33
2021/12/25 12:15:07;;;;;;;0.20;0.20;;;;;;;18.74;40.33;100341.00;5147724;27;20054;-33
2021/12/25 12:17:32;;;;;;;0.20;0.20;;;;;;;18.74;40.27;100338.25;5136232;27;20530;-31
2021/12/25 12:20:02;;;;;;;0.20;0.20;;;;;;;18.73;40.39;100340.16;5138591;27;20044;-34
2021/12/25 12:22:43;;;;;;;0.20;0.20;;;;;;;18.74;40.07;100338.25;5121971;27;20473;-31
2021/12/25 12:25:21;;;;;;;0.20;0.20;;;;;;;18.74;40.19;100335.50;5120591;27;20111;-32